sensor_id;sensor_type;location;lat;lon;timestamp;pressure;altitude;pressure_sealevel;temperature;humidity
9281;BME280;4679;47.966;7.958;2023-09-19T06:27:36;97157.31;;;16.96;79.99
9281;BME280;4679;47.966;7.958;2023-09-19T06:29:38;97163.69;;;17.00;79.90
9281;BME280;4679;47.966;7.958;2023-09-19T06:31:40;97156.41;;;17.05;79.64
9281;BME280;4679;47.966;7.958;2023-09-19T06:33:42;97151.84;;;17.06;79.72
9281;BME280;4679;47.966;7.958;2023-09-19T06:35:43;97157.75;;;17.03;80.08
9281;BME280;4679;47.966;7.958;2023-09-19T06:37:47;97153.75;;;17.00;79.93
9281;BME280;4679;47.966;7.958;2023-09-19T06:39:49;97162.59;;;17.01;80.10
9281;BME280;4679;47.966;7.958;2023-09-19T06:41:51;97163.97;;;16.98;79.84
9281;BME280;4679;47.966;7.958;2023-09-19T06:43:55;97164.47;;;17.00;79.63
9281;BME280;4679;47.966;7.958;2023-09-19T06:45:56;97160.44;;;17.03;80.04
9281;BME280;4679;47.966;7.958;2023-09-19T06:47:58;97164.47;;;17.00;79.65
9281;BME280;4679;47.966;7.958;2023-09-19T06:50:00;97166.34;;;17.00;79.54
9281;BME280;4679;47.966;7.958;2023-09-19T06:52:05;97176.53;;;17.03;79.56
9281;BME280;4679;47.966;7.958;2023-09-19T06:54:06;97168.19;;;17.04;79.87
9281;BME280;4679;47.966;7.958;2023-09-19T06:56:07;97169.28;;;17.03;79.80
9281;BME280;4679;47.966;7.958;2023-09-19T06:58:09;97174.91;;;17.02;79.56
9281;BME280;4679;47.966;7.958;2023-09-19T07:00:13;97174.59;;;17.08;79.28
9281;BME280;4679;47.966;7.958;2023-09-19T07:02:18;97177.22;;;17.13;79.71
9281;BME280;4679;47.966;7.958;2023-09-19T07:04:20;97169.16;;;17.13;79.45
9281;BME280;4679;47.966;7.958;2023-09-19T07:06:21;97180.94;;;17.17;79.18
9281;BME280;4679;47.966;7.958;2023-09-19T07:08:23;97186.53;;;17.21;78.96
9281;BME280;4679;47.966;7.958;2023-09-19T07:10:25;97178.78;;;17.19;79.04
9281;BME280;4679;47.966;7.958;2023-09-19T07:12:27;97182.22;;;17.25;78.82
9281;BME280;4679;47.966;7.958;2023-09-19T07:14:29;97181.63;;;17.28;79.24
9281;BME280;4679;47.966;7.958;2023-09-19T07:16:32;97178.44;;;17.26;79.17
9281;BME280;4679;47.966;7.958;2023-09-19T07:18:34;97178.94;;;17.28;79.40
9281;BME280;4679;47.966;7.958;2023-09-19T07:20:37;97179.69;;;17.34;79.01
9281;BME280;4679;47.966;7.958;2023-09-19T07:22:38;97187.41;;;17.40;78.37
9281;BME280;4679;47.966;7.958;2023-09-19T07:24:39;97185.22;;;17.42;78.55
9281;BME280;4679;47.966;7.958;2023-09-19T07:26:41;97186.75;;;17.48;78.27
9281;BME280;4679;47.966;7.958;2023-09-19T07:28:43;97179.97;;;17.56;78.66
9281;BME280;4679;47.966;7.958;2023-09-19T07:30:45;97186.19;;;17.75;77.86
9281;BME280;4679;47.966;7.958;2023-09-19T07:32:48;97180.53;;;17.77;77.95
9281;BME280;4679;47.966;7.958;2023-09-19T07:34:50;97180.44;;;17.87;77.70
9281;BME280;4679;47.966;7.958;2023-09-19T07:36:52;97184.00;;;18.01;77.40
9281;BME280;4679;47.966;7.958;2023-09-19T07:38:53;97183.41;;;18.04;77.46
9281;BME280;4679;47.966;7.958;2023-09-19T07:41:00;97189.56;;;18.05;77.23
9281;BME280;4679;47.966;7.958;2023-09-19T07:43:02;97187.50;;;18.02;77.36
9281;BME280;4679;47.966;7.958;2023-09-19T07:45:05;97192.84;;;18.02;77.54
9281;BME280;4679;47.966;7.958;2023-09-19T07:47:08;97191.97;;;18.06;77.24
9281;BME280;4679;47.966;7.958;2023-09-19T07:49:11;97190.59;;;18.09;77.41
9281;BME280;4679;47.966;7.958;2023-09-19T07:51:12;97198.38;;;18.10;77.19
9281;BME280;4679;47.966;7.958;2023-09-19T07:53:16;97197.28;;;18.11;76.95
9281;BME280;4679;47.966;7.958;2023-09-19T07:55:18;97197.56;;;18.10;77.01
9281;BME280;4679;47.966;7.958;2023-09-19T07:57:23;97195.16;;;18.08;77.25
9281;BME280;4679;47.966;7.958;2023-09-19T07:59:25;97203.75;;;18.10;76.91
9281;BME280;4679;47.966;7.958;2023-09-19T08:01:26;97202.88;;;18.15;76.63
9281;BME280;4679;47.966;7.958;2023-09-19T08:03:28;97211.13;;;18.18;76.50
9281;BME280;4679;47.966;7.958;2023-09-19T08:05:31;97212.44;;;18.21;76.26
9281;BME280;4679;47.966;7.958;2023-09-19T08:07:33;97215.94;;;18.21;76.21
9281;BME280;4679;47.966;7.958;2023-09-19T08:09:36;97215.13;;;18.21;75.89
9281;BME280;4679;47.966;7.958;2023-09-19T08:11:38;97223.13;;;18.26;76.00
9281;BME280;4679;47.966;7.958;2023-09-19T08:13:41;97219.88;;;18.29;75.76
9281;BME280;4679;47.966;7.958;2023-09-19T08:15:44;97226.84;;;18.30;75.74
9281;BME280;4679;47.966;7.958;2023-09-19T08:17:45;97226.84;;;18.30;75.71
9281;BME280;4679;47.966;7.958;2023-09-19T08:19:47;97224.72;;;18.27;75.37
9281;BME280;4679;47.966;7.958;2023-09-19T08:21:51;97229.59;;;18.25;75.53
9281;BME280;4679;47.966;7.958;2023-09-19T08:23:53;97228.22;;;18.27;75.67
9281;BME280;4679;47.966;7.958;2023-09-19T08:25:56;97233.06;;;18.25;75.37
9281;BME280;4679;47.966;7.958;2023-09-19T08:27:58;97234.97;;;18.25;75.53
9281;BME280;4679;47.966;7.958;2023-09-19T08:30:02;97230.09;;;18.27;75.45
9281;BME280;4679;47.966;7.958;2023-09-19T08:32:04;97237.06;;;18.28;75.21
9281;BME280;4679;47.966;7.958;2023-09-19T08:34:06;97241.28;;;18.34;74.55
9281;BME280;4679;47.966;7.958;2023-09-19T08:36:07;97237.72;;;18.39;74.69
9281;BME280;4679;47.966;7.958;2023-09-19T08:38:11;97238.00;;;18.37;74.92
9281;BME280;4679;47.966;7.958;2023-09-19T08:40:14;97242.94;;;18.49;74.62
9281;BME280;4679;47.966;7.958;2023-09-19T08:42:16;97243.88;;;18.63;74.06
9281;BME280;4679;47.966;7.958;2023-09-19T08:44:20;97242.25;;;18.62;73.90
9281;BME280;4679;47.966;7.958;2023-09-19T08:46:25;97250.44;;;18.71;73.70
9281;BME280;4679;47.966;7.958;2023-09-19T08:48:31;97250.69;;;18.74;73.74
9281;BME280;4679;47.966;7.958;2023-09-19T08:50:39;97256.84;;;18.75;73.54
9281;BME280;4679;47.966;7.958;2023-09-19T08:52:42;97253.88;;;18.76;73.47
9281;BME280;4679;47.966;7.958;2023-09-19T08:54:47;97257.06;;;18.78;73.29
9281;BME280;4679;47.966;7.958;2023-09-19T08:56:50;97261.56;;;18.83;73.09
9281;BME280;4679;47.966;7.958;2023-09-19T08:58:55;97256.41;;;18.86;72.97
9281;BME280;4679;47.966;7.958;2023-09-19T09:00:59;97258.03;;;19.01;72.71
9281;BME280;4679;47.966;7.958;2023-09-19T09:03:02;97250.50;;;19.17;72.35
9281;BME280;4679;47.966;7.958;2023-09-19T09:05:05;97253.53;;;19.43;71.75
9281;BME280;4679;47.966;7.958;2023-09-19T09:07:10;97257.69;;;19.54;71.49
9281;BME280;4679;47.966;7.958;2023-09-19T09:09:13;97257.78;;;19.62;70.68
9281;BME280;4679;47.966;7.958;2023-09-19T09:11:17;97258.91;;;19.89;70.11
9281;BME280;4679;47.966;7.958;2023-09-19T09:13:18;97258.72;;;19.99;70.27
9281;BME280;4679;47.966;7.958;2023-09-19T09:15:21;97263.09;;;19.95;69.98
9281;BME280;4679;47.966;7.958;2023-09-19T09:17:24;97263.78;;;19.73;70.35
9281;BME280;4679;47.966;7.958;2023-09-19T09:19:25;97259.59;;;19.53;70.81
9281;BME280;4679;47.966;7.958;2023-09-19T09:21:27;97271.16;;;19.67;70.14
9281;BME280;4679;47.966;7.958;2023-09-19T09:23:30;97257.13;;;19.84;69.81
9281;BME280;4679;47.966;7.958;2023-09-19T09:25:48;97260.28;;;19.86;69.64
9281;BME280;4679;47.966;7.958;2023-09-19T09:28:01;97254.81;;;19.91;69.35
9281;BME280;4679;47.966;7.958;2023-09-19T09:30:04;97262.88;;;19.91;69.16
9281;BME280;4679;47.966;7.958;2023-09-19T09:32:16;97263.47;;;19.88;68.91
9281;BME280;4679;47.966;7.958;2023-09-19T09:34:18;97254.13;;;19.86;69.31
9281;BME280;4679;47.966;7.958;2023-09-19T09:36:34;97261.28;;;19.77;69.24
9281;BME280;4679;47.966;7.958;2023-09-19T09:38:43;97260.09;;;19.83;69.05
9281;BME280;4679;47.966;7.958;2023-09-19T09:40:47;97251.09;;;20.15;68.19
9281;BME280;4679;47.966;7.958;2023-09-19T09:42:49;97259.03;;;20.33;67.74
9281;BME280;4679;47.966;7.958;2023-09-19T09:45:12;97259.75;;;20.39;67.38
9281;BME280;4679;47.966;7.958;2023-09-19T09:47:13;97257.59;;;20.63;67.21
9281;BME280;4679;47.966;7.958;2023-09-19T09:49:31;97254.88;;;20.99;66.56
9281;BME280;4679;47.966;7.958;2023-09-19T09:51:34;97254.44;;;21.06;66.02
9281;BME280;4679;47.966;7.958;2023-09-19T09:53:36;97255.19;;;21.20;65.79
9281;BME280;4679;47.966;7.958;2023-09-19T09:55:59;97247.31;;;21.32;65.44
9281;BME280;4679;47.966;7.958;2023-09-19T09:58:16;97247.59;;;21.53;64.95
9281;BME280;4679;47.966;7.958;2023-09-19T10:00:20;97246.22;;;21.64;64.49
9281;BME280;4679;47.966;7.958;2023-09-19T10:02:25;97255.81;;;21.79;64.35
9281;BME280;4679;47.966;7.958;2023-09-19T10:04:29;97251.53;;;21.87;64.40
9281;BME280;4679;47.966;7.958;2023-09-19T10:06:40;97257.47;;;21.97;64.38
9281;BME280;4679;47.966;7.958;2023-09-19T10:08:58;97254.44;;;21.59;64.88
9281;BME280;4679;47.966;7.958;2023-09-19T10:11:15;97252.50;;;21.51;64.77
9281;BME280;4679;47.966;7.958;2023-09-19T10:13:18;97247.34;;;21.41;65.12
9281;BME280;4679;47.966;7.958;2023-09-19T10:15:23;97252.63;;;21.46;65.08
9281;BME280;4679;47.966;7.958;2023-09-19T10:17:34;97246.94;;;21.56;64.22
9281;BME280;4679;47.966;7.958;2023-09-19T10:19:38;97251.00;;;21.76;63.85
9281;BME280;4679;47.966;7.958;2023-09-19T10:21:47;97249.41;;;21.75;64.41
9281;BME280;4679;47.966;7.958;2023-09-19T10:23:50;97242.72;;;21.72;63.92
9281;BME280;4679;47.966;7.958;2023-09-19T10:25:57;97248.53;;;21.57;64.35
9281;BME280;4679;47.966;7.958;2023-09-19T10:28:02;97243.59;;;21.51;64.09
9281;BME280;4679;47.966;7.958;2023-09-19T10:30:11;97239.81;;;21.21;64.96
9281;BME280;4679;47.966;7.958;2023-09-19T10:32:15;97245.47;;;20.97;65.43
9281;BME280;4679;47.966;7.958;2023-09-19T10:34:20;97250.38;;;20.95;65.48
9281;BME280;4679;47.966;7.958;2023-09-19T10:36:24;97246.03;;;21.08;65.08
9281;BME280;4679;47.966;7.958;2023-09-19T10:38:27;97244.81;;;21.36;64.29
9281;BME280;4679;47.966;7.958;2023-09-19T10:40:29;97246.00;;;21.21;64.71
9281;BME280;4679;47.966;7.958;2023-09-19T10:42:37;97238.41;;;21.10;64.79
9281;BME280;4679;47.966;7.958;2023-09-19T10:44:41;97243.16;;;21.26;64.41
9281;BME280;4679;47.966;7.958;2023-09-19T10:46:44;97241.66;;;21.42;64.23
9281;BME280;4679;47.966;7.958;2023-09-19T10:48:47;97233.25;;;21.44;63.63
9281;BME280;4679;47.966;7.958;2023-09-19T10:50:52;97230.03;;;21.33;64.06
9281;BME280;4679;47.966;7.958;2023-09-19T10:53:02;97225.78;;;21.19;63.94
9281;BME280;4679;47.966;7.958;2023-09-19T10:55:08;97236.81;;;21.08;64.50
9281;BME280;4679;47.966;7.958;2023-09-19T10:57:11;97230.78;;;21.03;64.64
9281;BME280;4679;47.966;7.958;2023-09-19T10:59:18;97237.41;;;21.19;64.05
9281;BME280;4679;47.966;7.958;2023-09-19T11:01:21;97236.53;;;21.32;63.57
9281;BME280;4679;47.966;7.958;2023-09-19T11:03:23;97233.19;;;21.13;64.11
9281;BME280;4679;47.966;7.958;2023-09-19T11:05:32;97231.75;;;21.07;64.12
9281;BME280;4679;47.966;7.958;2023-09-19T11:07:56;97236.09;;;21.17;63.75
9281;BME280;4679;47.966;7.958;2023-09-19T11:09:58;97229.34;;;21.28;63.74
9281;BME280;4679;47.966;7.958;2023-09-19T11:12:02;97231.16;;;21.41;62.92
9281;BME280;4679;47.966;7.958;2023-09-19T11:14:14;97217.09;;;21.53;63.04
9281;BME280;4679;47.966;7.958;2023-09-19T11:16:18;97223.41;;;21.48;62.82
9281;BME280;4679;47.966;7.958;2023-09-19T11:18:51;97218.34;;;21.55;62.61
9281;BME280;4679;47.966;7.958;2023-09-19T11:23:42;97223.19;;;22.15;61.12
9281;BME280;4679;47.966;7.958;2023-09-19T11:25:44;97227.81;;;22.32;60.87
9281;BME280;4679;47.966;7.958;2023-09-19T11:30:28;97224.81;;;22.42;60.35
9281;BME280;4679;47.966;7.958;2023-09-19T11:35:07;97214.78;;;22.25;60.14
9281;BME280;4679;47.966;7.958;2023-09-19T11:40:05;97211.28;;;22.51;59.71
9281;BME280;4679;47.966;7.958;2023-09-19T11:42:40;97220.81;;;22.14;59.88
9281;BME280;4679;47.966;7.958;2023-09-19T11:44:42;97210.44;;;22.16;59.94
9281;BME280;4679;47.966;7.958;2023-09-19T11:46:54;97210.97;;;22.26;59.44
9281;BME280;4679;47.966;7.958;2023-09-19T11:49:05;97204.72;;;22.17;59.55
9281;BME280;4679;47.966;7.958;2023-09-19T11:51:17;97197.53;;;21.95;59.74
9281;BME280;4679;47.966;7.958;2023-09-19T11:53:31;97202.06;;;21.77;60.29
9281;BME280;4679;47.966;7.958;2023-09-19T11:55:37;97204.41;;;22.19;59.09
9281;BME280;4679;47.966;7.958;2023-09-19T11:57:40;97199.97;;;22.31;59.01
9281;BME280;4679;47.966;7.958;2023-09-19T11:59:42;97205.84;;;22.16;59.32
9281;BME280;4679;47.966;7.958;2023-09-19T12:01:51;97196.94;;;22.24;58.88
9281;BME280;4679;47.966;7.958;2023-09-19T12:03:59;97198.72;;;22.55;58.37
9281;BME280;4679;47.966;7.958;2023-09-19T12:06:10;97194.72;;;22.26;58.74
9281;BME280;4679;47.966;7.958;2023-09-19T12:08:14;97198.88;;;22.41;58.49
9281;BME280;4679;47.966;7.958;2023-09-19T12:10:17;97200.44;;;22.33;58.76
9281;BME280;4679;47.966;7.958;2023-09-19T12:12:24;97199.34;;;22.26;58.76
9281;BME280;4679;47.966;7.958;2023-09-19T12:14:29;97193.94;;;22.34;58.64
9281;BME280;4679;47.966;7.958;2023-09-19T12:16:31;97185.66;;;22.65;57.88
9281;BME280;4679;47.966;7.958;2023-09-19T12:18:33;97189.31;;;22.95;57.30
9281;BME280;4679;47.966;7.958;2023-09-19T12:20:42;97187.41;;;22.87;57.49
9281;BME280;4679;47.966;7.958;2023-09-19T12:22:47;97185.16;;;23.06;57.13
9281;BME280;4679;47.966;7.958;2023-09-19T12:24:50;97182.97;;;23.38;56.51
9281;BME280;4679;47.966;7.958;2023-09-19T12:26:59;97181.53;;;23.40;56.36
9281;BME280;4679;47.966;7.958;2023-09-19T12:29:10;97183.25;;;22.98;57.07
9281;BME280;4679;47.966;7.958;2023-09-19T12:31:13;97175.16;;;22.81;57.04
9281;BME280;4679;47.966;7.958;2023-09-19T12:33:19;97176.25;;;22.63;57.43
9281;BME280;4679;47.966;7.958;2023-09-19T12:35:27;97174.72;;;22.44;57.61
9281;BME280;4679;47.966;7.958;2023-09-19T12:37:30;97176.59;;;22.27;57.96
9281;BME280;4679;47.966;7.958;2023-09-19T12:39:34;97176.59;;;22.18;57.84
9281;BME280;4679;47.966;7.958;2023-09-19T12:41:37;97170.06;;;22.10;58.27
9281;BME280;4679;47.966;7.958;2023-09-19T12:43:40;97168.94;;;22.03;58.18
9281;BME280;4679;47.966;7.958;2023-09-19T12:45:44;97165.13;;;22.21;57.51
9281;BME280;4679;47.966;7.958;2023-09-19T12:48:18;97165.94;;;22.48;57.08
9281;BME280;4679;47.966;7.958;2023-09-19T12:50:21;97160.22;;;22.32;57.67
9281;BME280;4679;47.966;7.958;2023-09-19T12:52:34;97160.22;;;22.32;57.47
9281;BME280;4679;47.966;7.958;2023-09-19T12:54:39;97162.59;;;22.85;56.18
9281;BME280;4679;47.966;7.958;2023-09-19T12:56:41;97160.22;;;23.30;55.32
9281;BME280;4679;47.966;7.958;2023-09-19T12:58:51;97152.84;;;23.39;55.42
9281;BME280;4679;47.966;7.958;2023-09-19T13:00:55;97157.03;;;23.37;55.25
9281;BME280;4679;47.966;7.958;2023-09-19T13:03:17;97146.78;;;23.51;55.03
9281;BME280;4679;47.966;7.958;2023-09-19T13:05:47;97139.03;;;23.70;54.39
9281;BME280;4679;47.966;7.958;2023-09-19T13:07:49;97137.63;;;23.94;54.08
9281;BME280;4679;47.966;7.958;2023-09-19T13:10:02;97136.22;;;23.58;54.72
9281;BME280;4679;47.966;7.958;2023-09-19T13:12:34;97134.44;;;23.24;55.40
9281;BME280;4679;47.966;7.958;2023-09-19T13:14:37;97140.09;;;23.02;55.73
9281;BME280;4679;47.966;7.958;2023-09-19T13:16:54;97126.13;;;23.29;55.01
9281;BME280;4679;47.966;7.958;2023-09-19T13:18:56;97126.09;;;23.76;53.87
9281;BME280;4679;47.966;7.958;2023-09-19T13:21:07;97127.81;;;24.01;52.98
9281;BME280;4679;47.966;7.958;2023-09-19T13:23:26;97120.69;;;23.97;53.46
9281;BME280;4679;47.966;7.958;2023-09-19T13:25:28;97112.06;;;24.24;52.71
9281;BME280;4679;47.966;7.958;2023-09-19T13:27:30;97113.69;;;24.37;52.37
9281;BME280;4679;47.966;7.958;2023-09-19T13:29:31;97107.09;;;24.26;52.85
9281;BME280;4679;47.966;7.958;2023-09-19T13:31:32;97111.72;;;24.26;52.34
9281;BME280;4679;47.966;7.958;2023-09-19T13:33:35;97109.75;;;24.47;52.22
9281;BME280;4679;47.966;7.958;2023-09-19T13:35:43;97113.50;;;24.42;52.30
9281;BME280;4679;47.966;7.958;2023-09-19T13:37:47;97110.81;;;24.54;51.81
9281;BME280;4679;47.966;7.958;2023-09-19T13:39:49;97110.41;;;24.77;51.50
9281;BME280;4679;47.966;7.958;2023-09-19T13:41:50;97113.25;;;25.01;51.33
9281;BME280;4679;47.966;7.958;2023-09-19T13:43:51;97107.56;;;24.94;51.04
9281;BME280;4679;47.966;7.958;2023-09-19T13:45:53;97109.78;;;24.92;51.35
9281;BME280;4679;47.966;7.958;2023-09-19T13:47:55;97102.59;;;25.08;50.72
9281;BME280;4679;47.966;7.958;2023-09-19T13:49:58;97098.41;;;25.23;50.47
9281;BME280;4679;47.966;7.958;2023-09-19T13:51:59;97113.13;;;24.77;51.82
9281;BME280;4679;47.966;7.958;2023-09-19T13:54:03;97113.06;;;24.85;51.26
9281;BME280;4679;47.966;7.958;2023-09-19T13:56:06;97099.28;;;24.25;52.24
9281;BME280;4679;47.966;7.958;2023-09-19T13:58:08;97096.94;;;24.14;52.26
9281;BME280;4679;47.966;7.958;2023-09-19T14:00:12;97093.88;;;24.25;52.12
9281;BME280;4679;47.966;7.958;2023-09-19T14:02:16;97105.53;;;24.58;51.45
9281;BME280;4679;47.966;7.958;2023-09-19T14:04:18;97091.00;;;24.87;50.89
9281;BME280;4679;47.966;7.958;2023-09-19T14:06:22;97088.38;;;24.90;50.76
9281;BME280;4679;47.966;7.958;2023-09-19T14:08:24;97083.13;;;25.06;50.48
9281;BME280;4679;47.966;7.958;2023-09-19T14:10:25;97087.75;;;25.06;50.44
9281;BME280;4679;47.966;7.958;2023-09-19T14:12:28;97091.19;;;24.70;50.98
9281;BME280;4679;47.966;7.958;2023-09-19T14:14:29;97085.34;;;24.47;51.46
9281;BME280;4679;47.966;7.958;2023-09-19T14:16:30;97086.28;;;24.51;51.33
9281;BME280;4679;47.966;7.958;2023-09-19T14:18:32;97082.53;;;24.23;52.04
9281;BME280;4679;47.966;7.958;2023-09-19T14:20:37;97089.69;;;24.27;51.54
9281;BME280;4679;47.966;7.958;2023-09-19T14:22:41;97077.16;;;24.68;50.54
9281;BME280;4679;47.966;7.958;2023-09-19T14:24:42;97072.38;;;24.98;50.23
9281;BME280;4679;47.966;7.958;2023-09-19T14:26:44;97076.00;;;25.26;49.42
9281;BME280;4679;47.966;7.958;2023-09-19T14:28:46;97068.09;;;25.33;49.21
9281;BME280;4679;47.966;7.958;2023-09-19T14:30:48;97069.78;;;25.13;50.14
9281;BME280;4679;47.966;7.958;2023-09-19T14:32:50;97068.88;;;25.09;49.83
9281;BME280;4679;47.966;7.958;2023-09-19T14:34:52;97062.97;;;24.95;49.79
9281;BME280;4679;47.966;7.958;2023-09-19T14:36:53;97075.31;;;24.60;50.26
9281;BME280;4679;47.966;7.958;2023-09-19T14:38:57;97069.81;;;24.68;50.00
9281;BME280;4679;47.966;7.958;2023-09-19T14:40:59;97069.50;;;24.82;49.66
9281;BME280;4679;47.966;7.958;2023-09-19T14:43:01;97066.44;;;24.71;49.72
9281;BME280;4679;47.966;7.958;2023-09-19T14:45:04;97070.47;;;24.32;50.60
9281;BME280;4679;47.966;7.958;2023-09-19T14:47:07;97069.47;;;24.16;51.03
9281;BME280;4679;47.966;7.958;2023-09-19T14:49:08;97066.00;;;23.95;51.36
9281;BME280;4679;47.966;7.958;2023-09-19T14:51:10;97062.56;;;24.06;50.79
9281;BME280;4679;47.966;7.958;2023-09-19T14:53:12;97068.13;;;24.10;50.85
9281;BME280;4679;47.966;7.958;2023-09-19T14:55:15;97065.94;;;24.24;50.24
9281;BME280;4679;47.966;7.958;2023-09-19T14:57:17;97062.88;;;24.05;50.54
9281;BME280;4679;47.966;7.958;2023-09-19T14:59:17;97063.28;;;23.74;51.06
9281;BME280;4679;47.966;7.958;2023-09-19T15:01:20;97054.84;;;23.46;51.41
9281;BME280;4679;47.966;7.958;2023-09-19T15:03:22;97055.63;;;23.76;50.68
9281;BME280;4679;47.966;7.958;2023-09-19T15:05:24;97052.47;;;23.95;50.33
9281;BME280;4679;47.966;7.958;2023-09-19T15:07:26;97057.97;;;24.19;49.91
9281;BME280;4679;47.966;7.958;2023-09-19T15:09:29;97053.00;;;24.21;49.75
9281;BME280;4679;47.966;7.958;2023-09-19T15:11:35;97051.00;;;23.97;50.01
9281;BME280;4679;47.966;7.958;2023-09-19T15:13:36;97052.13;;;23.96;49.97
9281;BME280;4679;47.966;7.958;2023-09-19T15:15:37;97042.88;;;23.76;50.44
9281;BME280;4679;47.966;7.958;2023-09-19T15:17:39;97049.00;;;23.85;50.29
9281;BME280;4679;47.966;7.958;2023-09-19T15:19:40;97049.94;;;23.90;49.79
9281;BME280;4679;47.966;7.958;2023-09-19T15:21:41;97049.19;;;24.01;49.60
9281;BME280;4679;47.966;7.958;2023-09-19T15:23:43;97052.47;;;23.95;49.60
9281;BME280;4679;47.966;7.958;2023-09-19T15:25:47;97050.34;;;23.79;49.85
9281;BME280;4679;47.966;7.958;2023-09-19T15:27:50;97049.22;;;23.80;49.98
9281;BME280;4679;47.966;7.958;2023-09-19T15:29:52;97053.25;;;23.95;49.51
9281;BME280;4679;47.966;7.958;2023-09-19T15:31:55;97062.09;;;24.04;49.73
9281;BME280;4679;47.966;7.958;2023-09-19T15:33:59;97065.88;;;24.12;49.24
9281;BME280;4679;47.966;7.958;2023-09-19T15:36:04;97058.63;;;24.16;49.34
9281;BME280;4679;47.966;7.958;2023-09-19T15:38:06;97058.44;;;24.21;49.15
9281;BME280;4679;47.966;7.958;2023-09-19T15:40:08;97055.91;;;24.16;49.15
9281;BME280;4679;47.966;7.958;2023-09-19T15:42:13;97059.91;;;24.18;49.13
9281;BME280;4679;47.966;7.958;2023-09-19T15:44:18;97050.84;;;24.14;49.00
9281;BME280;4679;47.966;7.958;2023-09-19T15:46:20;97052.66;;;24.10;49.04
9281;BME280;4679;47.966;7.958;2023-09-19T15:48:21;97049.28;;;24.13;49.06
9281;BME280;4679;47.966;7.958;2023-09-19T15:50:23;97047.31;;;24.14;49.04
9281;BME280;4679;47.966;7.958;2023-09-19T15:52:25;97054.75;;;24.05;48.95
9281;BME280;4679;47.966;7.958;2023-09-19T15:54:27;97051.13;;;24.01;49.14
9281;BME280;4679;47.966;7.958;2023-09-19T15:56:29;97051.88;;;24.22;48.65
9281;BME280;4679;47.966;7.958;2023-09-19T15:58:31;97048.38;;;24.22;48.60
9281;BME280;4679;47.966;7.958;2023-09-19T16:00:40;97050.84;;;24.35;48.37
9281;BME280;4679;47.966;7.958;2023-09-19T16:02:41;97053.34;;;24.40;48.54
9281;BME280;4679;47.966;7.958;2023-09-19T16:04:42;97040.25;;;24.42;48.03
9281;BME280;4679;47.966;7.958;2023-09-19T16:06:45;97049.75;;;24.48;48.21
9281;BME280;4679;47.966;7.958;2023-09-19T16:08:48;97044.97;;;24.45;48.20
9281;BME280;4679;47.966;7.958;2023-09-19T16:10:50;97049.72;;;24.36;48.20
9281;BME280;4679;47.966;7.958;2023-09-19T16:12:52;97048.69;;;24.29;48.15
9281;BME280;4679;47.966;7.958;2023-09-19T16:14:53;97041.25;;;24.17;48.48
9281;BME280;4679;47.966;7.958;2023-09-19T16:16:56;97044.03;;;24.08;48.50
9281;BME280;4679;47.966;7.958;2023-09-19T16:19:00;97036.44;;;24.02;48.42
9281;BME280;4679;47.966;7.958;2023-09-19T16:21:03;97041.84;;;24.02;48.65
9281;BME280;4679;47.966;7.958;2023-09-19T16:23:05;97039.41;;;23.88;48.64
9281;BME280;4679;47.966;7.958;2023-09-19T16:25:07;97030.53;;;23.67;49.01
9281;BME280;4679;47.966;7.958;2023-09-19T16:27:11;97027.91;;;23.49;49.39
9281;BME280;4679;47.966;7.958;2023-09-19T16:29:15;97034.47;;;23.40;49.54
9281;BME280;4679;47.966;7.958;2023-09-19T16:31:17;97039.00;;;23.27;49.71
9281;BME280;4679;47.966;7.958;2023-09-19T16:33:20;97042.13;;;23.08;49.79
9281;BME280;4679;47.966;7.958;2023-09-19T16:35:22;97037.09;;;22.98;50.13
9281;BME280;4679;47.966;7.958;2023-09-19T16:37:24;97042.22;;;22.91;50.03
9281;BME280;4679;47.966;7.958;2023-09-19T16:39:25;97042.41;;;22.77;50.32
9281;BME280;4679;47.966;7.958;2023-09-19T16:41:27;97037.97;;;22.64;50.28
9281;BME280;4679;47.966;7.958;2023-09-19T16:43:29;97038.03;;;22.56;50.59
9281;BME280;4679;47.966;7.958;2023-09-19T16:45:29;97042.00;;;22.50;50.65
9281;BME280;4679;47.966;7.958;2023-09-19T16:47:31;97041.25;;;22.40;51.26
9281;BME280;4679;47.966;7.958;2023-09-19T16:49:34;97048.44;;;22.28;51.27
9281;BME280;4679;47.966;7.958;2023-09-19T16:51:35;97042.38;;;22.22;51.08
9281;BME280;4679;47.966;7.958;2023-09-19T16:53:38;97051.13;;;22.19;51.17
9281;BME280;4679;47.966;7.958;2023-09-19T16:55:40;97053.38;;;22.08;51.42
9281;BME280;4679;47.966;7.958;2023-09-19T16:57:42;97051.13;;;22.02;51.82
9281;BME280;4679;47.966;7.958;2023-09-19T16:59:45;97045.22;;;21.91;51.73
9281;BME280;4679;47.966;7.958;2023-09-19T17:01:46;97050.31;;;21.75;52.26
9281;BME280;4679;47.966;7.958;2023-09-19T17:03:48;97048.25;;;21.64;52.29
9281;BME280;4679;47.966;7.958;2023-09-19T17:05:51;97052.03;;;21.54;52.88
9281;BME280;4679;47.966;7.958;2023-09-19T17:07:53;97059.81;;;21.47;52.52
9281;BME280;4679;47.966;7.958;2023-09-19T17:09:55;97062.16;;;21.40;52.73
9281;BME280;4679;47.966;7.958;2023-09-19T17:11:57;97060.75;;;21.34;52.91
9281;BME280;4679;47.966;7.958;2023-09-19T17:13:59;97059.91;;;21.25;52.69
9281;BME280;4679;47.966;7.958;2023-09-19T17:16:03;97058.44;;;21.19;53.35
9281;BME280;4679;47.966;7.958;2023-09-19T17:18:04;97069.50;;;21.08;53.42
9281;BME280;4679;47.966;7.958;2023-09-19T17:20:07;97071.94;;;20.79;53.93
9281;BME280;4679;47.966;7.958;2023-09-19T17:22:10;97073.09;;;20.56;54.47
9281;BME280;4679;47.966;7.958;2023-09-19T17:24:11;97074.56;;;20.40;54.42
9281;BME280;4679;47.966;7.958;2023-09-19T17:26:13;97073.88;;;20.34;54.52
9281;BME280;4679;47.966;7.958;2023-09-19T17:28:18;97070.94;;;20.22;55.35
9281;BME280;4679;47.966;7.958;2023-09-19T17:30:19;97078.47;;;20.11;55.52
9281;BME280;4679;47.966;7.958;2023-09-19T17:32:22;97074.69;;;20.12;55.67
9281;BME280;4679;47.966;7.958;2023-09-19T17:34:24;97077.06;;;20.14;55.58
9281;BME280;4679;47.966;7.958;2023-09-19T17:36:26;97077.59;;;20.02;56.00
9281;BME280;4679;47.966;7.958;2023-09-19T17:38:29;97079.94;;;19.95;56.24
9281;BME280;4679;47.966;7.958;2023-09-19T17:40:30;97077.47;;;19.85;56.49
9281;BME280;4679;47.966;7.958;2023-09-19T17:42:31;97079.50;;;19.65;56.91
9281;BME280;4679;47.966;7.958;2023-09-19T17:44:34;97079.25;;;19.53;57.20
9281;BME280;4679;47.966;7.958;2023-09-19T17:46:36;97073.22;;;19.43;57.46
9281;BME280;4679;47.966;7.958;2023-09-19T17:48:40;97079.44;;;19.29;57.41
9281;BME280;4679;47.966;7.958;2023-09-19T17:50:42;97075.84;;;19.20;58.25
9281;BME280;4679;47.966;7.958;2023-09-19T17:52:44;97073.84;;;19.12;58.36
9281;BME280;4679;47.966;7.958;2023-09-19T17:54:47;97076.16;;;19.05;58.73